createdAt,value
2018-04-01T00:01:11.387Z,7.70
2018-04-01T00:03:38.719Z,7.87
2018-04-01T00:06:07.903Z,8.00
2018-04-01T00:08:35.243Z,7.83
2018-04-01T00:11:02.572Z,7.87
2018-04-01T00:13:29.921Z,8.47
2018-04-01T00:15:57.347Z,8.37
2018-04-01T00:18:25.468Z,7.73
2018-04-01T00:20:53.010Z,7.40
2018-04-01T00:23:20.371Z,8.17
2018-04-01T00:25:47.720Z,7.70
2018-04-01T00:28:15.488Z,8.03
2018-04-01T00:30:42.840Z,8.30
2018-04-01T00:33:10.164Z,8.70
2018-04-01T00:35:38.610Z,7.60
2018-04-01T00:38:05.944Z,6.47
2018-04-01T00:40:34.058Z,7.30
2018-04-01T00:43:01.404Z,6.90
2018-04-01T00:45:28.759Z,7.90
2018-04-01T00:47:56.129Z,7.27
2018-04-01T00:50:24.301Z,8.30
2018-04-01T00:52:52.044Z,7.77
2018-04-01T00:55:19.376Z,7.73
2018-04-01T00:57:46.728Z,8.40
2018-04-01T01:00:14.071Z,8.90
2018-04-01T01:02:41.433Z,9.73
2018-04-01T01:05:09.844Z,9.40
2018-04-01T01:07:37.180Z,9.00
2018-04-01T01:10:04.535Z,9.13
2018-04-01T01:12:31.984Z,9.87
2018-04-01T01:14:59.311Z,9.20
2018-04-01T01:17:26.666Z,10.73
2018-04-01T01:19:54.915Z,9.87
2018-04-01T01:22:22.247Z,9.30
2018-04-01T01:24:49.603Z,10.93
2018-04-01T01:27:16.947Z,9.97
2018-04-01T01:29:44.286Z,9.93
2018-04-01T01:32:11.628Z,11.20
2018-04-01T01:34:38.983Z,9.67
2018-04-01T01:37:06.792Z,11.60
2018-04-01T01:39:34.456Z,10.20
2018-04-01T01:42:01.805Z,11.67
2018-04-01T01:44:29.130Z,11.60
2018-04-01T01:46:56.480Z,12.60
2018-04-01T01:49:24.363Z,13.60
2018-04-01T01:51:51.687Z,12.80
2018-04-01T01:54:19.950Z,13.57
2018-04-01T01:56:47.302Z,12.77
2018-04-01T01:59:14.666Z,15.50
2018-04-01T02:01:42.007Z,13.97
2018-04-01T02:04:11.944Z,14.33
2018-04-01T02:06:39.263Z,15.03
2018-04-01T02:09:06.615Z,12.87
2018-04-01T02:11:34.295Z,11.90
2018-04-01T02:14:02.414Z,13.37
2018-04-01T02:16:31.077Z,14.80
2018-04-01T02:18:59.348Z,15.03
2018-04-01T02:21:26.733Z,15.10
2018-04-01T02:23:54.027Z,16.90
2018-04-01T02:26:21.799Z,16.50
2018-04-01T02:28:49.893Z,16.07
2018-04-01T02:31:17.309Z,15.57
2018-04-01T02:33:45.459Z,15.50
2018-04-01T02:36:12.797Z,13.80
2018-04-01T02:38:40.117Z,13.90
2018-04-01T02:41:07.468Z,13.30
2018-04-01T02:43:35.989Z,15.27
2018-04-01T02:46:03.307Z,16.30
2018-04-01T02:48:32.245Z,16.40
2018-04-01T02:50:59.571Z,17.17
2018-04-01T02:53:26.925Z,16.87
2018-04-01T02:55:54.273Z,16.40
2018-04-01T02:58:23.285Z,16.50
2018-04-01T03:00:51.734Z,18.67
2018-04-01T03:03:19.092Z,17.60
2018-04-01T03:05:47.374Z,17.23
2018-04-01T03:08:15.569Z,18.47
2018-04-01T03:10:43.588Z,17.57
2018-04-01T03:13:11.940Z,17.60
2018-04-01T03:15:39.309Z,19.13
2018-04-01T03:18:07.576Z,18.70
2018-04-01T03:20:34.924Z,17.70
2018-04-01T03:23:03.021Z,17.70
2018-04-01T03:25:30.360Z,16.97
2018-04-01T03:27:57.679Z,17.20
2018-04-01T03:30:25.022Z,18.90
2018-04-01T03:32:52.363Z,17.13
2018-04-01T03:35:20.465Z,17.57
2018-04-01T03:37:48.588Z,17.33
2018-04-01T03:40:15.928Z,18.53
2018-04-01T03:42:43.279Z,18.73
2018-04-01T03:45:10.624Z,17.10
2018-04-01T03:47:38.689Z,17.93
2018-04-01T03:50:06.013Z,16.50
2018-04-01T03:52:33.335Z,16.37
2018-04-01T03:55:00.683Z,13.13
2018-04-01T03:57:28.935Z,12.70
2018-04-01T03:59:56.289Z,11.10
2018-04-01T04:02:23.627Z,10.37
2018-04-01T04:04:50.975Z,12.03
2018-04-01T04:07:18.307Z,11.67
2018-04-01T04:09:46.573Z,11.73
2018-04-01T04:12:13.894Z,12.60
2018-04-01T04:14:41.238Z,12.10
2018-04-01T04:17:08.588Z,10.90
2018-04-01T04:19:36.399Z,11.23
2018-04-01T04:22:03.744Z,10.30
2018-04-01T04:24:31.087Z,10.73
2018-04-01T04:26:58.555Z,10.73
2018-04-01T04:29:26.836Z,10.00
2018-04-01T04:31:54.174Z,10.80
2018-04-01T04:34:21.693Z,9.40
2018-04-01T04:36:50.021Z,9.07
2018-04-01T04:39:17.384Z,10.03
2018-04-01T04:41:44.699Z,9.13
2018-04-01T04:44:12.555Z,9.23
2018-04-01T04:46:40.425Z,8.87
2018-04-01T04:49:07.762Z,8.10
2018-04-01T04:51:35.094Z,8.57
2018-04-01T04:54:03.192Z,8.53
2018-04-01T04:56:30.554Z,7.30
2018-04-01T04:58:59.403Z,6.50
2018-04-01T05:01:27.040Z,7.30
2018-04-01T05:03:54.390Z,7.10
2018-04-01T05:06:21.719Z,6.37
2018-04-01T05:08:49.067Z,4.80
2018-04-01T05:11:16.392Z,5.50
2018-04-01T05:13:45.960Z,4.70
2018-04-01T05:16:13.302Z,5.63
2018-04-01T05:18:40.622Z,4.20
2018-04-01T05:21:07.969Z,4.10
2018-04-01T05:23:36.089Z,4.90
2018-04-01T05:26:03.413Z,4.00
2018-04-01T05:28:31.291Z,5.70
2018-04-01T05:30:58.627Z,5.73
2018-04-01T05:33:26.664Z,5.10
2018-04-01T05:35:54.071Z,5.30
2018-04-01T05:38:23.053Z,5.77
2018-04-01T05:40:50.364Z,6.13
2018-04-01T05:43:17.689Z,6.20
2018-04-01T05:45:45.027Z,6.30
2018-04-01T05:48:12.383Z,5.97
2018-04-01T05:50:39.711Z,5.90
2018-04-01T05:53:07.043Z,6.33
2018-04-01T05:55:34.402Z,6.10
2018-04-01T05:58:01.732Z,6.00
2018-04-01T06:00:29.071Z,6.67
2018-04-01T06:02:56.391Z,9.07
2018-04-01T06:05:23.710Z,8.80
2018-04-01T06:07:51.278Z,8.90
2018-04-01T06:10:18.927Z,8.30
2018-04-01T06:12:46.285Z,10.03
2018-04-01T06:15:14.055Z,9.63
2018-04-01T06:17:41.402Z,9.00
2018-04-01T06:20:08.749Z,7.67
2018-04-01T06:22:36.091Z,7.23
2018-04-01T06:25:03.424Z,5.70
2018-04-01T06:27:31.528Z,4.87
2018-04-01T06:29:58.851Z,4.27
2018-04-01T06:32:26.202Z,4.17
2018-04-01T06:34:53.532Z,8.23
2018-04-01T06:37:21.617Z,5.00
2018-04-01T06:39:48.992Z,3.87
2018-04-01T06:42:16.284Z,3.23
2018-04-01T06:44:44.420Z,3.20
2018-04-01T06:47:11.756Z,3.43
2018-04-01T06:49:39.090Z,3.20
2018-04-01T06:52:07.195Z,3.80
2018-04-01T06:54:34.549Z,3.50
2018-04-01T06:57:02.743Z,3.13
2018-04-01T06:59:30.799Z,4.00
2018-04-01T07:01:58.539Z,3.73
2018-04-01T07:04:25.877Z,3.87
2018-04-01T07:06:54.014Z,3.07
2018-04-01T07:09:21.332Z,3.07
2018-04-01T07:11:48.684Z,5.37
2018-04-01T07:14:16.519Z,5.27
2018-04-01T07:16:45.231Z,3.60
2018-04-01T07:19:12.739Z,3.00
2018-04-01T07:21:40.116Z,3.07
2018-04-01T07:24:08.288Z,3.40
2018-04-01T07:26:35.615Z,3.57
2018-04-01T07:29:02.952Z,3.47
2018-04-01T07:31:30.274Z,3.77
2018-04-01T07:33:57.784Z,4.30
2018-04-01T07:36:25.762Z,4.43
2018-04-01T07:38:53.114Z,5.10
2018-04-01T07:41:20.463Z,9.47
2018-04-01T07:43:48.795Z,5.00
2018-04-01T07:46:16.914Z,5.80
2018-04-01T07:48:44.256Z,6.00
2018-04-01T07:51:11.598Z,6.80
2018-04-01T07:53:38.965Z,6.73
2018-04-01T07:56:07.000Z,8.37
2018-04-01T07:58:35.260Z,8.23
2018-04-01T08:01:03.279Z,8.80
2018-04-01T08:03:30.699Z,9.40
2018-04-01T08:05:58.378Z,11.33
2018-04-01T08:08:25.720Z,13.23
2018-04-01T08:10:55.789Z,29.00
2018-04-01T08:13:26.272Z,15.93
2018-04-01T08:15:54.370Z,21.27
2018-04-01T08:18:22.848Z,16.37
2018-04-01T08:20:50.202Z,15.70
2018-04-01T08:23:27.412Z,15.87
2018-04-01T08:25:54.747Z,20.03
2018-04-01T08:28:22.484Z,19.20
2018-04-01T08:30:50.600Z,17.70
2018-04-01T08:33:17.952Z,18.87
2018-04-01T08:35:45.311Z,19.00
2018-04-01T08:38:12.647Z,19.63
2018-04-01T08:40:40.009Z,18.27
2018-04-01T08:43:07.360Z,18.80
2018-04-01T08:45:35.488Z,18.60
2018-04-01T08:48:02.867Z,20.20
2018-04-01T08:50:30.660Z,18.53
2018-04-01T08:52:58.236Z,22.87
2018-04-01T08:55:25.573Z,23.63
2018-04-01T08:57:52.926Z,19.50
2018-04-01T09:00:20.438Z,18.70
2018-04-01T09:02:47.872Z,20.90
2018-04-01T09:05:15.210Z,21.60
2018-04-01T09:07:42.546Z,19.67
2018-04-01T09:10:10.790Z,17.80
2018-04-01T09:12:38.971Z,17.80
2018-04-01T09:15:07.068Z,17.83
2018-04-01T09:17:34.429Z,22.83
2018-04-01T09:20:02.630Z,18.07
2018-04-01T09:22:29.978Z,25.17
2018-04-01T09:24:57.308Z,17.40
2018-04-01T09:27:24.668Z,21.60
2018-04-01T09:29:52.037Z,20.50
2018-04-01T09:32:19.866Z,21.80
2018-04-01T09:34:47.221Z,18.60
2018-04-01T09:37:14.544Z,19.30
2018-04-01T09:39:41.887Z,19.17
2018-04-01T09:42:09.223Z,18.80
2018-04-01T09:44:37.887Z,19.20
2018-04-01T09:47:05.233Z,19.67
2018-04-01T09:49:32.595Z,20.83
2018-04-01T09:51:59.919Z,24.13
2018-04-01T09:54:27.272Z,20.73
2018-04-01T09:56:54.713Z,21.70
2018-04-01T09:59:22.096Z,20.33
2018-04-01T10:01:50.951Z,24.03
2018-04-01T10:04:19.052Z,28.60
2018-04-01T10:06:47.919Z,23.07
2018-04-01T10:09:18.950Z,25.07
2018-04-01T10:11:47.223Z,25.37
2018-04-01T10:14:15.327Z,27.37
2018-04-01T10:16:43.473Z,35.43
2018-04-01T10:19:11.625Z,32.43
2018-04-01T10:21:39.754Z,25.73
2018-04-01T10:24:09.082Z,27.20
2018-04-01T10:26:37.179Z,29.20
2018-04-01T10:29:06.554Z,31.10
2018-04-01T10:31:34.682Z,26.73
2018-04-01T10:34:02.776Z,28.50
2018-04-01T10:36:31.625Z,27.43
2018-04-01T10:39:01.451Z,30.27
2018-04-01T10:41:29.523Z,31.10
2018-04-01T10:43:57.603Z,29.20
2018-04-01T10:46:26.485Z,28.53
2018-04-01T10:48:54.612Z,29.60
2018-04-01T10:51:22.696Z,30.87
2018-04-01T10:53:57.138Z,29.70
2018-04-01T10:56:25.185Z,26.33
2018-04-01T10:58:52.513Z,28.77
2018-04-01T11:01:19.869Z,27.90
2018-04-01T11:03:47.633Z,30.67
2018-04-01T11:06:14.988Z,25.70
2018-04-01T11:08:42.340Z,24.67
2018-04-01T11:11:09.709Z,26.40
2018-04-01T11:13:37.049Z,25.67
2018-04-01T11:16:04.381Z,26.17
2018-04-01T11:18:31.731Z,25.10
2018-04-01T11:20:59.077Z,24.77
2018-04-01T11:23:26.423Z,25.07
2018-04-01T11:25:54.479Z,25.87
2018-04-01T11:28:22.774Z,23.30
2018-04-01T11:30:50.117Z,24.97
2018-04-01T11:33:17.476Z,23.50
2018-04-01T11:35:44.805Z,22.53
2018-04-01T11:38:13.273Z,23.27
2018-04-01T11:40:41.561Z,23.30
2018-04-01T11:43:08.967Z,22.30
2018-04-01T11:45:36.311Z,22.23
2018-04-01T11:48:03.680Z,21.73
2018-04-01T11:50:31.021Z,21.73
2018-04-01T11:52:58.359Z,19.70
2018-04-01T11:55:25.707Z,19.43
2018-04-01T11:57:53.038Z,18.67
2018-04-01T12:00:20.717Z,18.07
2018-04-01T12:02:49.076Z,20.27
2018-04-01T12:05:16.888Z,18.93
2018-04-01T12:07:45.359Z,17.60
2018-04-01T12:10:12.719Z,18.30
2018-04-01T12:12:40.411Z,23.47
2018-04-01T12:15:08.534Z,20.07
2018-04-01T12:17:35.889Z,19.60
2018-04-01T12:20:04.244Z,19.47
2018-04-01T12:22:31.799Z,21.80
2018-04-01T12:24:59.699Z,22.00
2018-04-01T12:27:27.068Z,24.27
2018-04-01T12:29:54.396Z,21.23
2018-04-01T12:32:21.776Z,21.20
2018-04-01T12:34:49.127Z,21.53
2018-04-01T12:37:17.267Z,22.87
2018-04-01T12:39:45.008Z,19.37
2018-04-01T12:42:12.347Z,19.50
2018-04-01T12:44:39.682Z,22.70
2018-04-01T12:47:07.044Z,21.43
2018-04-01T12:49:34.398Z,22.27
2018-04-01T12:52:01.740Z,22.40
2018-04-01T12:54:29.112Z,22.90
2018-04-01T12:56:56.470Z,24.67
2018-04-01T12:59:23.833Z,23.70
2018-04-01T13:01:51.256Z,24.00
2018-04-01T13:04:18.551Z,23.53
2018-04-01T13:06:46.724Z,22.70
2018-04-01T13:09:14.364Z,23.00
2018-04-01T13:11:41.720Z,23.13
2018-04-01T13:14:09.987Z,24.20
2018-04-01T13:16:37.353Z,21.50
2018-04-01T13:19:04.695Z,23.50
2018-04-01T13:21:32.097Z,22.67
2018-04-01T13:23:59.455Z,21.77
2018-04-01T13:26:27.304Z,25.83
2018-04-01T13:28:54.651Z,24.43
2018-04-01T13:31:23.104Z,25.17
2018-04-01T13:33:51.623Z,24.77
2018-04-01T13:36:19.749Z,22.50
2018-04-01T13:38:47.910Z,24.70
2018-04-01T13:41:15.627Z,25.23
2018-04-01T13:43:45.437Z,25.00
2018-04-01T13:46:13.648Z,24.23
2018-04-01T13:48:42.132Z,25.87
2018-04-01T13:51:10.561Z,24.60
2018-04-01T13:53:37.915Z,23.83
2018-04-01T13:56:06.200Z,26.90
2018-04-01T13:58:34.238Z,25.83
2018-04-01T14:01:01.586Z,29.00
2018-04-01T14:03:29.212Z,27.57
2018-04-01T14:05:56.548Z,28.47
2018-04-01T14:08:24.910Z,25.90
2018-04-01T14:10:52.276Z,26.13
2018-04-01T14:13:19.604Z,27.67
2018-04-01T14:15:46.973Z,27.23
2018-04-01T14:18:14.329Z,27.00
2018-04-01T14:20:41.663Z,27.67
2018-04-01T14:23:09.031Z,26.00
2018-04-01T14:25:37.314Z,27.77
2018-04-01T14:28:04.643Z,27.87
2018-04-01T14:30:32.326Z,27.50
2018-04-01T14:32:59.713Z,28.77
2018-04-01T14:35:27.050Z,27.17
2018-04-01T14:37:54.576Z,28.03
2018-04-01T14:40:22.353Z,29.93
2018-04-01T14:42:49.480Z,30.60
2018-04-01T14:45:16.852Z,29.00
2018-04-01T14:47:45.523Z,30.10
2018-04-01T14:50:12.895Z,29.10
2018-04-01T14:52:40.237Z,31.47
2018-04-01T14:55:07.578Z,29.40
2018-04-01T14:57:35.645Z,27.03
2018-04-01T15:00:03.241Z,28.33
2018-04-01T15:02:30.595Z,25.80
2018-04-01T15:04:58.864Z,26.73
2018-04-01T15:07:28.649Z,24.57
2018-04-01T15:10:05.638Z,24.67
2018-04-01T15:12:35.016Z,22.10
2018-04-01T15:15:03.309Z,23.53
2018-04-01T15:17:30.666Z,25.40
2018-04-01T15:19:59.307Z,27.43
2018-04-01T15:22:27.152Z,27.53
2018-04-01T15:24:55.555Z,28.67
2018-04-01T15:27:23.665Z,30.80
2018-04-01T15:29:51.106Z,31.30
2018-04-01T15:32:19.490Z,32.63
2018-04-01T15:34:46.867Z,31.03
2018-04-01T15:37:14.342Z,32.30
2018-04-01T15:39:42.294Z,32.30
2018-04-01T15:42:10.500Z,24.47
2018-04-01T15:44:37.860Z,17.73
2018-04-01T15:47:05.211Z,12.03
2018-04-01T15:49:33.376Z,12.03
2018-04-01T15:52:04.857Z,11.57
2018-04-01T15:54:33.309Z,11.50
2018-04-01T15:57:00.667Z,11.30
2018-04-01T15:59:28.024Z,12.40
2018-04-01T16:01:55.765Z,14.07
2018-04-01T16:04:23.125Z,13.80
2018-04-01T16:06:50.479Z,13.10
2018-04-01T16:09:17.849Z,13.83
2018-04-01T17:37:43.054Z,40.93
2018-04-01T17:40:11.343Z,39.90
2018-04-01T17:42:39.182Z,38.17
2018-04-01T17:45:06.564Z,43.47
2018-04-01T17:47:34.652Z,41.17
2018-04-01T17:50:02.111Z,32.53
2018-04-01T17:52:30.055Z,31.70
2018-04-01T17:54:57.769Z,48.97
2018-04-01T17:57:26.113Z,32.27
2018-04-01T17:59:54.289Z,34.37
2018-04-01T18:02:21.728Z,41.83
2018-04-01T18:04:49.068Z,47.37
2018-04-01T18:07:18.161Z,42.63
2018-04-01T18:09:46.665Z,38.40
2018-04-01T18:12:14.335Z,31.10
2018-04-01T18:14:50.308Z,36.93
2018-04-01T18:17:18.746Z,31.83
2018-04-01T18:19:46.094Z,28.10
2018-04-01T18:22:14.467Z,29.37
2018-04-01T18:24:42.233Z,40.00
2018-04-01T18:27:09.596Z,33.20
2018-04-01T18:29:40.775Z,29.73
2018-04-01T18:32:09.143Z,33.30
2018-04-01T18:34:37.309Z,27.60
2018-04-01T18:37:04.788Z,25.13
2018-04-01T18:39:32.194Z,29.57
2018-04-01T18:41:59.552Z,27.13
2018-04-01T18:44:26.918Z,26.30
2018-04-01T18:46:54.397Z,33.07
2018-04-01T18:49:21.867Z,33.77
2018-04-01T18:51:50.937Z,36.77
2018-04-01T18:54:18.299Z,34.10
2018-04-01T18:56:49.164Z,32.77
2018-04-01T18:59:18.702Z,26.63
2018-04-01T19:01:46.486Z,24.87
2018-04-01T19:04:14.176Z,25.87
2018-04-01T19:06:42.002Z,34.13
2018-04-01T19:09:09.388Z,34.83
2018-04-01T19:11:36.887Z,30.03
2018-04-01T19:14:04.286Z,28.70
2018-04-01T19:16:32.796Z,26.90
2018-04-01T19:19:02.428Z,30.73
2018-04-01T19:21:31.753Z,36.60
2018-04-01T19:24:00.194Z,26.33
2018-04-01T19:26:28.311Z,43.37
2018-04-01T19:28:56.409Z,31.60
2018-04-01T19:31:24.518Z,30.00
2018-04-01T19:33:52.660Z,79.13
2018-04-01T19:36:20.914Z,29.83
2018-04-01T19:38:49.400Z,37.37
2018-04-01T19:41:18.459Z,34.67
2018-04-01T19:43:46.724Z,36.00
2018-04-01T19:46:16.177Z,63.13
2018-04-01T19:48:44.251Z,39.50
2018-04-01T19:51:12.345Z,33.23
2018-04-01T19:53:40.425Z,41.20
2018-04-01T19:56:09.240Z,32.07
2018-04-01T19:58:37.350Z,33.77
2018-04-01T20:01:05.439Z,30.30
2018-04-01T20:03:33.564Z,30.93
2018-04-01T20:06:01.639Z,29.50
2018-04-01T20:08:29.745Z,31.83
2018-04-01T20:10:57.838Z,32.10
2018-04-01T20:13:25.993Z,31.10
2018-04-01T20:15:54.076Z,45.93
2018-04-01T20:18:22.192Z,32.40
2018-04-01T20:20:50.271Z,50.07
2018-04-01T20:23:18.365Z,32.07
2018-04-01T20:25:46.505Z,34.70
2018-04-01T20:28:14.616Z,36.73
2018-04-01T20:30:43.466Z,38.93
2018-04-01T20:33:12.300Z,48.57
2018-04-01T20:35:41.232Z,36.23
2018-04-01T20:38:10.448Z,35.23
2018-04-01T20:40:38.619Z,40.97
2018-04-01T20:43:06.735Z,37.10
2018-04-01T20:45:35.104Z,39.90
2018-04-01T20:48:03.200Z,56.43
2018-04-01T20:50:31.321Z,38.93
2018-04-01T20:53:00.139Z,37.03
2018-04-01T20:55:28.259Z,54.10
2018-04-01T20:57:56.380Z,41.47
2018-04-01T21:00:24.464Z,39.63
2018-04-01T21:02:52.571Z,44.63
2018-04-01T21:05:20.758Z,69.57
2018-04-01T21:07:49.283Z,66.23
2018-04-01T21:10:17.372Z,44.43
2018-04-01T21:12:45.458Z,46.30
2018-04-01T21:15:13.578Z,44.47
2018-04-01T21:17:41.660Z,53.97
2018-04-01T21:20:10.608Z,57.50
2018-04-01T21:22:40.758Z,48.03
2018-04-01T21:25:11.603Z,45.93
2018-04-01T21:27:39.691Z,47.70
2018-04-01T21:30:09.567Z,53.30
2018-04-01T21:32:38.419Z,70.77
2018-04-01T21:35:06.769Z,64.43
2018-04-01T21:37:35.085Z,100.23
2018-04-01T21:40:04.777Z,55.50
2018-04-01T21:42:32.883Z,50.00
2018-04-01T21:45:00.943Z,49.27
2018-04-01T21:47:29.039Z,50.83
2018-04-01T21:49:57.900Z,52.03
2018-04-01T21:52:26.003Z,56.17
2018-04-01T21:54:54.850Z,53.07
2018-04-01T21:57:23.550Z,52.57
2018-04-01T21:59:51.591Z,53.87
2018-04-01T22:02:19.691Z,58.73
2018-04-01T22:04:47.782Z,57.73
2018-04-01T22:07:15.858Z,58.83
2018-04-01T22:09:44.719Z,54.73
2018-04-01T22:12:12.969Z,56.83
2018-04-01T22:14:41.456Z,58.87
2018-04-01T22:17:09.536Z,58.03
2018-04-01T22:19:37.844Z,55.90
2018-04-01T22:22:05.912Z,58.77
2018-04-01T22:24:34.576Z,60.17
2018-04-01T22:27:03.615Z,57.80
2018-04-01T22:29:31.725Z,57.57
2018-04-01T22:31:59.807Z,59.20
2018-04-01T22:34:28.796Z,58.90
2018-04-01T22:36:56.893Z,59.10
2018-04-01T22:39:25.002Z,61.07
2018-04-01T22:41:53.858Z,61.17
2018-04-01T22:44:21.946Z,62.17
2018-04-01T22:46:50.023Z,66.40
2018-04-01T22:49:18.287Z,63.60
2018-04-01T22:51:46.910Z,65.47
2018-04-01T22:54:15.158Z,67.93
2018-04-01T22:56:43.251Z,70.40
2018-04-01T22:59:12.094Z,69.53
2018-04-01T23:01:40.192Z,65.30
2018-04-01T23:04:08.313Z,69.83
2018-04-01T23:06:36.393Z,71.57
2018-04-01T23:09:04.498Z,72.07
2018-04-01T23:11:32.595Z,70.77
2018-04-01T23:14:01.444Z,68.60
2018-04-01T23:16:29.537Z,71.37
2018-04-01T23:18:57.623Z,73.70
2018-04-01T23:21:26.496Z,73.30
2018-04-01T23:23:54.604Z,79.93
2018-04-01T23:26:23.458Z,82.83
2018-04-01T23:28:51.907Z,83.57
2018-04-01T23:31:19.992Z,84.97
2018-04-01T23:33:48.087Z,82.37
2018-04-01T23:36:16.160Z,88.57
2018-04-01T23:38:44.971Z,85.33
2018-04-01T23:41:13.826Z,87.00
2018-04-01T23:43:41.932Z,81.30
2018-04-01T23:46:10.796Z,82.03
2018-04-01T23:48:38.874Z,83.83
2018-04-01T23:51:07.472Z,89.87
2018-04-01T23:53:36.328Z,86.70
2018-04-01T23:56:08.065Z,88.23
2018-04-01T23:58:36.141Z,83.63
